sensor_id;sensor_type;location;lat;lon;timestamp;temperature;humidity
61841;DHT22;47773;53.174;6.614;2022-11-20T01:44:58;2.20;99.90
61841;DHT22;47773;53.174;6.614;2022-11-20T03:50:51;2.30;99.90
61841;DHT22;47773;53.174;6.614;2022-11-20T03:53:17;2.20;99.90
61841;DHT22;47773;53.174;6.614;2022-11-20T03:55:43;2.10;99.90
61841;DHT22;47773;53.174;6.614;2022-11-20T04:00:36;2.20;99.90
61841;DHT22;47773;53.174;6.614;2022-11-20T04:05:28;2.20;99.90
61841;DHT22;47773;53.174;6.614;2022-11-20T04:20:04;2.30;99.90
61841;DHT22;47773;53.174;6.614;2022-11-20T04:29:48;2.20;99.90
61841;DHT22;47773;53.174;6.614;2022-11-20T04:32:14;2.00;99.90
61841;DHT22;47773;53.174;6.614;2022-11-20T04:37:05;2.10;99.90
61841;DHT22;47773;53.174;6.614;2022-11-20T04:47:08;2.20;99.90
61841;DHT22;47773;53.174;6.614;2022-11-20T04:59:17;2.30;99.90
61841;DHT22;47773;53.174;6.614;2022-11-20T05:01:43;2.10;99.90
61841;DHT22;47773;53.174;6.614;2022-11-20T05:04:09;2.10;99.90
61841;DHT22;47773;53.174;6.614;2022-11-20T05:06:34;2.00;99.90
61841;DHT22;47773;53.174;6.614;2022-11-20T05:09:00;1.90;99.90
61841;DHT22;47773;53.174;6.614;2022-11-20T05:11:26;1.90;99.90
61841;DHT22;47773;53.174;6.614;2022-11-20T05:13:54;1.90;99.90
61841;DHT22;47773;53.174;6.614;2022-11-20T05:16:22;1.90;99.90
61841;DHT22;47773;53.174;6.614;2022-11-20T05:18:48;1.90;99.90
61841;DHT22;47773;53.174;6.614;2022-11-20T05:23:40;2.00;99.90
61841;DHT22;47773;53.174;6.614;2022-11-20T05:46:08;2.40;99.90
61841;DHT22;47773;53.174;6.614;2022-11-20T05:48:35;2.20;99.90
61841;DHT22;47773;53.174;6.614;2022-11-20T05:51:02;2.10;99.90
61841;DHT22;47773;53.174;6.614;2022-11-20T05:53:28;2.10;99.90
61841;DHT22;47773;53.174;6.614;2022-11-20T05:55:58;2.10;99.90
61841;DHT22;47773;53.174;6.614;2022-11-20T05:58:24;2.10;99.90
61841;DHT22;47773;53.174;6.614;2022-11-20T06:00:50;2.00;99.90
61841;DHT22;47773;53.174;6.614;2022-11-20T06:03:15;1.90;99.90
61841;DHT22;47773;53.174;6.614;2022-11-20T06:05:41;1.90;99.90
61841;DHT22;47773;53.174;6.614;2022-11-20T06:08:07;1.90;99.90
61841;DHT22;47773;53.174;6.614;2022-11-20T06:10:32;1.80;99.90
61841;DHT22;47773;53.174;6.614;2022-11-20T06:12:58;1.80;99.90
61841;DHT22;47773;53.174;6.614;2022-11-20T06:15:24;1.80;99.90
61841;DHT22;47773;53.174;6.614;2022-11-20T06:17:52;1.80;99.90
61841;DHT22;47773;53.174;6.614;2022-11-20T06:20:19;1.80;99.90
61841;DHT22;47773;53.174;6.614;2022-11-20T06:22:44;1.80;99.90
61841;DHT22;47773;53.174;6.614;2022-11-20T06:25:10;1.80;99.90
61841;DHT22;47773;53.174;6.614;2022-11-20T06:27:35;1.80;99.90
61841;DHT22;47773;53.174;6.614;2022-11-20T06:30:01;1.80;99.90
61841;DHT22;47773;53.174;6.614;2022-11-20T06:32:27;1.90;99.90
61841;DHT22;47773;53.174;6.614;2022-11-20T06:34:52;1.90;99.90
61841;DHT22;47773;53.174;6.614;2022-11-20T06:37:18;1.90;99.90
61841;DHT22;47773;53.174;6.614;2022-11-20T06:39:43;1.90;99.90
61841;DHT22;47773;53.174;6.614;2022-11-20T06:42:09;1.90;99.90
61841;DHT22;47773;53.174;6.614;2022-11-20T06:44:34;2.00;99.90
61841;DHT22;47773;53.174;6.614;2022-11-20T06:47:00;2.00;99.90
61841;DHT22;47773;53.174;6.614;2022-11-20T06:49:26;2.00;99.90
61841;DHT22;47773;53.174;6.614;2022-11-20T06:51:52;2.00;99.90
61841;DHT22;47773;53.174;6.614;2022-11-20T06:54:17;2.00;99.90
61841;DHT22;47773;53.174;6.614;2022-11-20T06:56:46;2.00;99.90
61841;DHT22;47773;53.174;6.614;2022-11-20T06:59:13;2.00;99.90
61841;DHT22;47773;53.174;6.614;2022-11-20T07:01:38;2.00;99.90
61841;DHT22;47773;53.174;6.614;2022-11-20T07:04:04;2.00;99.90
61841;DHT22;47773;53.174;6.614;2022-11-20T07:06:30;2.00;99.90
61841;DHT22;47773;53.174;6.614;2022-11-20T07:08:55;2.10;99.90
61841;DHT22;47773;53.174;6.614;2022-11-20T07:11:21;2.10;99.90
61841;DHT22;47773;53.174;6.614;2022-11-20T07:16:13;2.20;99.90
61841;DHT22;47773;53.174;6.614;2022-11-20T11:17:23;3.80;99.90
61841;DHT22;47773;53.174;6.614;2022-11-20T11:22:26;3.70;99.90
61841;DHT22;47773;53.174;6.614;2022-11-20T11:27:19;3.80;99.90
61841;DHT22;47773;53.174;6.614;2022-11-20T11:29:46;3.80;99.90
61841;DHT22;47773;53.174;6.614;2022-11-20T11:32:14;3.70;99.90
61841;DHT22;47773;53.174;6.614;2022-11-20T11:34:40;3.80;99.90
61841;DHT22;47773;53.174;6.614;2022-11-20T13:01:55;4.30;99.90
61841;DHT22;47773;53.174;6.614;2022-11-20T13:07:07;4.20;99.90
61841;DHT22;47773;53.174;6.614;2022-11-20T13:09:39;4.20;99.90
61841;DHT22;47773;53.174;6.614;2022-11-20T13:12:11;4.20;99.90
61841;DHT22;47773;53.174;6.614;2022-11-20T13:15:00;4.20;99.90
61841;DHT22;47773;53.174;6.614;2022-11-20T13:17:38;4.20;99.90
61841;DHT22;47773;53.174;6.614;2022-11-20T13:22:46;4.30;99.90
61841;DHT22;47773;53.174;6.614;2022-11-20T13:27:57;4.40;99.90
61841;DHT22;47773;53.174;6.614;2022-11-20T13:38:10;4.50;99.90
61841;DHT22;47773;53.174;6.614;2022-11-20T13:40:38;4.50;99.90
61841;DHT22;47773;53.174;6.614;2022-11-20T13:45:37;4.60;99.90
61841;DHT22;47773;53.174;6.614;2022-11-20T13:48:15;4.50;99.90
61841;DHT22;47773;53.174;6.614;2022-11-20T14:01:58;4.30;99.90
61841;DHT22;47773;53.174;6.614;2022-11-20T14:04:33;4.30;99.90
61841;DHT22;47773;53.174;6.614;2022-11-20T14:07:00;4.30;99.90
61841;DHT22;47773;53.174;6.614;2022-11-20T14:09:29;4.30;99.90
61841;DHT22;47773;53.174;6.614;2022-11-20T14:11:54;4.30;99.90
61841;DHT22;47773;53.174;6.614;2022-11-20T14:14:23;4.30;99.90
61841;DHT22;47773;53.174;6.614;2022-11-20T14:16:50;4.30;99.90
61841;DHT22;47773;53.174;6.614;2022-11-20T14:22:06;4.30;99.90
61841;DHT22;47773;53.174;6.614;2022-11-20T14:24:31;4.30;99.90
61841;DHT22;47773;53.174;6.614;2022-11-20T14:26:57;4.20;99.90
61841;DHT22;47773;53.174;6.614;2022-11-20T14:29:44;4.20;99.90
61841;DHT22;47773;53.174;6.614;2022-11-20T14:32:10;4.10;99.90
61841;DHT22;47773;53.174;6.614;2022-11-20T14:34:39;4.10;99.90
61841;DHT22;47773;53.174;6.614;2022-11-20T14:37:10;4.00;99.90
61841;DHT22;47773;53.174;6.614;2022-11-20T14:39:41;4.00;99.90
61841;DHT22;47773;53.174;6.614;2022-11-20T14:42:19;3.90;99.90
61841;DHT22;47773;53.174;6.614;2022-11-20T14:44:45;3.90;99.90
61841;DHT22;47773;53.174;6.614;2022-11-20T14:47:21;3.90;99.90
61841;DHT22;47773;53.174;6.614;2022-11-20T14:49:48;3.80;99.90
61841;DHT22;47773;53.174;6.614;2022-11-20T14:52:19;3.70;99.90
61841;DHT22;47773;53.174;6.614;2022-11-20T14:54:47;3.70;99.90
61841;DHT22;47773;53.174;6.614;2022-11-20T14:57:25;3.70;99.90
61841;DHT22;47773;53.174;6.614;2022-11-20T14:59:51;3.60;99.90
61841;DHT22;47773;53.174;6.614;2022-11-20T15:02:30;3.50;99.90
61841;DHT22;47773;53.174;6.614;2022-11-20T15:05:00;3.50;99.90
61841;DHT22;47773;53.174;6.614;2022-11-20T15:07:33;3.40;99.90
61841;DHT22;47773;53.174;6.614;2022-11-20T15:10:23;3.40;99.90
61841;DHT22;47773;53.174;6.614;2022-11-20T15:12:53;3.30;99.90
61841;DHT22;47773;53.174;6.614;2022-11-20T15:22:41;3.50;99.90
61841;DHT22;47773;53.174;6.614;2022-11-20T15:25:15;3.30;99.90
61841;DHT22;47773;53.174;6.614;2022-11-20T15:27:41;3.30;99.90
61841;DHT22;47773;53.174;6.614;2022-11-20T15:30:19;3.20;99.90
61841;DHT22;47773;53.174;6.614;2022-11-20T15:37:39;3.30;99.90
61841;DHT22;47773;53.174;6.614;2022-11-20T15:42:32;3.20;99.90
61841;DHT22;47773;53.174;6.614;2022-11-20T15:44:58;3.10;99.90
61841;DHT22;47773;53.174;6.614;2022-11-20T15:47:30;3.10;99.90
61841;DHT22;47773;53.174;6.614;2022-11-20T15:49:57;3.10;99.90
61841;DHT22;47773;53.174;6.614;2022-11-20T15:52:23;3.10;99.90
61841;DHT22;47773;53.174;6.614;2022-11-20T15:57:15;3.00;99.90
61841;DHT22;47773;53.174;6.614;2022-11-20T15:59:40;3.10;99.90
61841;DHT22;47773;53.174;6.614;2022-11-20T16:02:14;3.00;99.90
61841;DHT22;47773;53.174;6.614;2022-11-20T16:39:12;3.20;99.90
61841;DHT22;47773;53.174;6.614;2022-11-20T16:41:38;3.00;99.90
61841;DHT22;47773;53.174;6.614;2022-11-20T17:28:26;3.10;99.90
61841;DHT22;47773;53.174;6.614;2022-11-20T17:30:52;2.90;99.90
61841;DHT22;47773;53.174;6.614;2022-11-20T17:33:17;2.80;99.90
61841;DHT22;47773;53.174;6.614;2022-11-20T17:35:43;2.70;99.90
61841;DHT22;47773;53.174;6.614;2022-11-20T17:38:08;2.70;99.90
61841;DHT22;47773;53.174;6.614;2022-11-20T17:40:34;2.70;99.90
61841;DHT22;47773;53.174;6.614;2022-11-20T17:42:59;2.70;99.90
61841;DHT22;47773;53.174;6.614;2022-11-20T17:45:25;2.60;99.90
61841;DHT22;47773;53.174;6.614;2022-11-20T18:00:20;2.90;99.90
61841;DHT22;47773;53.174;6.614;2022-11-20T18:07:39;2.80;99.90
61841;DHT22;47773;53.174;6.614;2022-11-20T18:10:05;2.70;99.90
61841;DHT22;47773;53.174;6.614;2022-11-20T18:14:57;2.70;99.90
61841;DHT22;47773;53.174;6.614;2022-11-20T18:17:23;2.60;99.90
61841;DHT22;47773;53.174;6.614;2022-11-20T18:19:48;2.50;99.90
61841;DHT22;47773;53.174;6.614;2022-11-20T18:22:17;2.50;99.90
61841;DHT22;47773;53.174;6.614;2022-11-20T18:24:43;2.50;99.90
61841;DHT22;47773;53.174;6.614;2022-11-20T18:27:16;2.50;99.90
61841;DHT22;47773;53.174;6.614;2022-11-20T18:29:43;2.50;99.90
61841;DHT22;47773;53.174;6.614;2022-11-20T18:32:09;2.50;99.90
61841;DHT22;47773;53.174;6.614;2022-11-20T18:34:35;2.50;99.90
61841;DHT22;47773;53.174;6.614;2022-11-20T18:37:00;2.50;99.90
61841;DHT22;47773;53.174;6.614;2022-11-20T18:39:26;2.50;99.90
61841;DHT22;47773;53.174;6.614;2022-11-20T18:41:52;2.40;99.90
61841;DHT22;47773;53.174;6.614;2022-11-20T18:44:36;2.40;99.90
61841;DHT22;47773;53.174;6.614;2022-11-20T18:47:29;2.50;99.90
61841;DHT22;47773;53.174;6.614;2022-11-20T18:49:57;2.50;99.90
61841;DHT22;47773;53.174;6.614;2022-11-20T18:52:36;2.50;99.90
61841;DHT22;47773;53.174;6.614;2022-11-20T18:55:04;2.50;99.90
61841;DHT22;47773;53.174;6.614;2022-11-20T18:57:30;2.50;99.90
61841;DHT22;47773;53.174;6.614;2022-11-20T18:59:56;2.50;99.90
61841;DHT22;47773;53.174;6.614;2022-11-20T19:02:26;2.60;99.90
61841;DHT22;47773;53.174;6.614;2022-11-20T19:04:53;2.60;99.90
61841;DHT22;47773;53.174;6.614;2022-11-20T19:07:19;2.50;99.90
61841;DHT22;47773;53.174;6.614;2022-11-20T19:09:51;2.60;99.90
61841;DHT22;47773;53.174;6.614;2022-11-20T19:12:17;2.50;99.90
61841;DHT22;47773;53.174;6.614;2022-11-20T19:14:43;2.50;99.90
61841;DHT22;47773;53.174;6.614;2022-11-20T19:17:09;2.50;99.90
61841;DHT22;47773;53.174;6.614;2022-11-20T19:19:37;2.50;99.90
61841;DHT22;47773;53.174;6.614;2022-11-20T19:22:03;2.50;99.90
61841;DHT22;47773;53.174;6.614;2022-11-20T19:24:28;2.50;99.90
61841;DHT22;47773;53.174;6.614;2022-11-20T19:26:55;2.50;99.90
61841;DHT22;47773;53.174;6.614;2022-11-20T19:29:22;2.50;99.90
61841;DHT22;47773;53.174;6.614;2022-11-20T19:31:48;2.50;99.90
61841;DHT22;47773;53.174;6.614;2022-11-20T19:34:13;2.50;99.90
61841;DHT22;47773;53.174;6.614;2022-11-20T19:36:40;2.60;99.90
61841;DHT22;47773;53.174;6.614;2022-11-20T19:39:06;2.60;99.90
61841;DHT22;47773;53.174;6.614;2022-11-20T19:41:34;2.60;99.90
61841;DHT22;47773;53.174;6.614;2022-11-20T19:44:11;2.60;99.90
61841;DHT22;47773;53.174;6.614;2022-11-20T19:46:39;2.60;99.90
61841;DHT22;47773;53.174;6.614;2022-11-20T19:49:06;2.60;99.90
61841;DHT22;47773;53.174;6.614;2022-11-20T19:51:35;2.60;99.90
61841;DHT22;47773;53.174;6.614;2022-11-20T19:54:02;2.60;99.90
61841;DHT22;47773;53.174;6.614;2022-11-20T19:56:29;2.60;99.90
61841;DHT22;47773;53.174;6.614;2022-11-20T19:58:55;2.60;99.90
61841;DHT22;47773;53.174;6.614;2022-11-20T20:01:23;2.60;99.90
61841;DHT22;47773;53.174;6.614;2022-11-20T20:03:50;2.70;99.90
61841;DHT22;47773;53.174;6.614;2022-11-20T20:06:18;2.70;99.90
61841;DHT22;47773;53.174;6.614;2022-11-20T20:08:45;2.70;99.90
61841;DHT22;47773;53.174;6.614;2022-11-20T20:11:17;2.70;99.90
61841;DHT22;47773;53.174;6.614;2022-11-20T20:13:44;2.70;99.90
61841;DHT22;47773;53.174;6.614;2022-11-20T20:16:11;2.70;99.90
61841;DHT22;47773;53.174;6.614;2022-11-20T20:18:38;2.70;99.90
61841;DHT22;47773;53.174;6.614;2022-11-20T20:21:05;2.70;99.90
61841;DHT22;47773;53.174;6.614;2022-11-20T20:23:31;2.70;99.90
61841;DHT22;47773;53.174;6.614;2022-11-20T20:30:51;3.10;99.90
61841;DHT22;47773;53.174;6.614;2022-11-20T20:33:16;2.90;99.90
61841;DHT22;47773;53.174;6.614;2022-11-20T20:35:42;2.80;99.90
61841;DHT22;47773;53.174;6.614;2022-11-20T20:38:08;2.80;99.90
61841;DHT22;47773;53.174;6.614;2022-11-20T20:40:34;2.80;99.90
61841;DHT22;47773;53.174;6.614;2022-11-20T20:43:00;2.80;99.90
61841;DHT22;47773;53.174;6.614;2022-11-20T20:45:26;2.70;99.90
61841;DHT22;47773;53.174;6.614;2022-11-20T20:47:51;2.80;99.90
61841;DHT22;47773;53.174;6.614;2022-11-20T20:50:17;2.70;99.90
61841;DHT22;47773;53.174;6.614;2022-11-20T20:52:43;2.70;99.90
61841;DHT22;47773;53.174;6.614;2022-11-20T20:55:09;2.70;99.90
61841;DHT22;47773;53.174;6.614;2022-11-20T20:57:35;2.70;99.90
61841;DHT22;47773;53.174;6.614;2022-11-20T21:00:02;2.70;99.90
61841;DHT22;47773;53.174;6.614;2022-11-20T21:02:28;2.70;99.90
61841;DHT22;47773;53.174;6.614;2022-11-20T21:04:54;2.80;99.90
61841;DHT22;47773;53.174;6.614;2022-11-20T21:07:19;2.80;99.90
61841;DHT22;47773;53.174;6.614;2022-11-20T21:09:45;2.80;99.90
61841;DHT22;47773;53.174;6.614;2022-11-20T21:12:10;2.80;99.90
61841;DHT22;47773;53.174;6.614;2022-11-20T21:14:36;2.80;99.90
61841;DHT22;47773;53.174;6.614;2022-11-20T21:17:02;2.80;99.90
61841;DHT22;47773;53.174;6.614;2022-11-20T21:19:28;2.80;99.90
61841;DHT22;47773;53.174;6.614;2022-11-20T21:21:53;2.80;99.90
61841;DHT22;47773;53.174;6.614;2022-11-20T21:24:26;2.80;99.90
61841;DHT22;47773;53.174;6.614;2022-11-20T21:26:52;2.80;99.90
61841;DHT22;47773;53.174;6.614;2022-11-20T21:29:19;2.80;99.90
61841;DHT22;47773;53.174;6.614;2022-11-20T21:31:45;2.80;99.90
61841;DHT22;47773;53.174;6.614;2022-11-20T21:34:12;2.80;99.90
61841;DHT22;47773;53.174;6.614;2022-11-20T21:36:38;2.80;99.90
61841;DHT22;47773;53.174;6.614;2022-11-20T21:39:05;2.80;99.90
61841;DHT22;47773;53.174;6.614;2022-11-20T21:41:31;2.90;99.90
61841;DHT22;47773;53.174;6.614;2022-11-20T21:43:58;2.80;99.90
61841;DHT22;47773;53.174;6.614;2022-11-20T21:46:24;2.80;99.90
61841;DHT22;47773;53.174;6.614;2022-11-20T21:48:49;2.80;99.90
61841;DHT22;47773;53.174;6.614;2022-11-20T21:51:17;2.90;99.90
61841;DHT22;47773;53.174;6.614;2022-11-20T21:53:44;2.90;99.90
61841;DHT22;47773;53.174;6.614;2022-11-20T21:56:11;2.90;99.90
61841;DHT22;47773;53.174;6.614;2022-11-20T21:58:38;2.90;99.90
61841;DHT22;47773;53.174;6.614;2022-11-20T22:01:15;2.90;99.90
61841;DHT22;47773;53.174;6.614;2022-11-20T22:03:43;3.00;99.90
61841;DHT22;47773;53.174;6.614;2022-11-20T22:06:11;3.00;99.90
61841;DHT22;47773;53.174;6.614;2022-11-20T22:08:37;3.00;99.90
61841;DHT22;47773;53.174;6.614;2022-11-20T22:11:09;3.00;99.90
61841;DHT22;47773;53.174;6.614;2022-11-20T22:13:35;2.90;99.90
61841;DHT22;47773;53.174;6.614;2022-11-20T22:16:19;3.00;99.90
61841;DHT22;47773;53.174;6.614;2022-11-20T22:18:46;3.00;99.90
61841;DHT22;47773;53.174;6.614;2022-11-20T22:21:13;3.00;99.90
61841;DHT22;47773;53.174;6.614;2022-11-20T22:23:40;3.00;99.90
61841;DHT22;47773;53.174;6.614;2022-11-20T22:26:11;2.90;99.90
61841;DHT22;47773;53.174;6.614;2022-11-20T22:28:37;2.90;99.90
61841;DHT22;47773;53.174;6.614;2022-11-20T22:31:05;2.90;99.90
61841;DHT22;47773;53.174;6.614;2022-11-20T22:33:31;2.90;99.90
61841;DHT22;47773;53.174;6.614;2022-11-20T22:38:26;2.90;99.90
61841;DHT22;47773;53.174;6.614;2022-11-20T22:40:52;2.90;99.90
61841;DHT22;47773;53.174;6.614;2022-11-20T22:43:17;2.90;99.90
61841;DHT22;47773;53.174;6.614;2022-11-20T22:45:43;2.90;99.90
61841;DHT22;47773;53.174;6.614;2022-11-20T22:48:10;2.80;99.90
61841;DHT22;47773;53.174;6.614;2022-11-20T22:50:36;2.80;99.90
61841;DHT22;47773;53.174;6.614;2022-11-20T22:53:01;2.80;99.90
61841;DHT22;47773;53.174;6.614;2022-11-20T22:55:27;2.70;99.90
61841;DHT22;47773;53.174;6.614;2022-11-20T22:57:53;2.70;99.90
61841;DHT22;47773;53.174;6.614;2022-11-20T23:00:18;2.60;99.90
61841;DHT22;47773;53.174;6.614;2022-11-20T23:02:44;2.60;99.90
61841;DHT22;47773;53.174;6.614;2022-11-20T23:05:11;2.60;99.90
61841;DHT22;47773;53.174;6.614;2022-11-20T23:07:37;2.60;99.90
61841;DHT22;47773;53.174;6.614;2022-11-20T23:10:03;2.60;99.90
61841;DHT22;47773;53.174;6.614;2022-11-20T23:12:30;2.50;99.90
61841;DHT22;47773;53.174;6.614;2022-11-20T23:14:56;2.50;99.90
61841;DHT22;47773;53.174;6.614;2022-11-20T23:17:22;2.50;99.90
61841;DHT22;47773;53.174;6.614;2022-11-20T23:19:47;2.60;99.90
61841;DHT22;47773;53.174;6.614;2022-11-20T23:22:13;2.60;99.90
61841;DHT22;47773;53.174;6.614;2022-11-20T23:24:38;2.60;99.90
61841;DHT22;47773;53.174;6.614;2022-11-20T23:27:04;2.60;99.90
61841;DHT22;47773;53.174;6.614;2022-11-20T23:29:30;2.60;99.90
61841;DHT22;47773;53.174;6.614;2022-11-20T23:31:55;2.60;99.90
61841;DHT22;47773;53.174;6.614;2022-11-20T23:34:21;2.60;99.90
61841;DHT22;47773;53.174;6.614;2022-11-20T23:36:46;2.60;99.90
61841;DHT22;47773;53.174;6.614;2022-11-20T23:39:12;2.60;99.90
61841;DHT22;47773;53.174;6.614;2022-11-20T23:41:39;2.60;99.90
61841;DHT22;47773;53.174;6.614;2022-11-20T23:44:05;2.60;99.90
61841;DHT22;47773;53.174;6.614;2022-11-20T23:46:30;2.60;99.90
61841;DHT22;47773;53.174;6.614;2022-11-20T23:48:56;2.60;99.90
61841;DHT22;47773;53.174;6.614;2022-11-20T23:51:22;2.60;99.90
61841;DHT22;47773;53.174;6.614;2022-11-20T23:53:47;2.60;99.90
61841;DHT22;47773;53.174;6.614;2022-11-20T23:56:13;2.60;99.90
61841;DHT22;47773;53.174;6.614;2022-11-20T23:58:38;2.60;99.90
